sensor_id;sensor_type;location;lat;lon;timestamp;P1;durP1;ratioP1;P2;durP2;ratioP2
32876;SDS011;19226;51.600;8.034;2022-10-16T00:00:02;6.40;;;3.60;;
32876;SDS011;19226;51.600;8.034;2022-10-16T00:02:37;5.97;;;2.90;;
32876;SDS011;19226;51.600;8.034;2022-10-16T00:05:03;8.30;;;3.00;;
32876;SDS011;19226;51.600;8.034;2022-10-16T00:07:31;5.57;;;3.08;;
32876;SDS011;19226;51.600;8.034;2022-10-16T00:09:57;11.98;;;3.40;;
32876;SDS011;19226;51.600;8.034;2022-10-16T00:12:23;10.43;;;3.20;;
32876;SDS011;19226;51.600;8.034;2022-10-16T00:14:55;7.55;;;2.65;;
32876;SDS011;19226;51.600;8.034;2022-10-16T00:17:21;4.95;;;2.70;;
32876;SDS011;19226;51.600;8.034;2022-10-16T00:19:50;3.88;;;3.05;;
32876;SDS011;19226;51.600;8.034;2022-10-16T00:22:17;12.90;;;2.70;;
32876;SDS011;19226;51.600;8.034;2022-10-16T00:24:43;5.80;;;2.60;;
32876;SDS011;19226;51.600;8.034;2022-10-16T00:27:09;5.63;;;2.47;;
32876;SDS011;19226;51.600;8.034;2022-10-16T00:29:35;5.68;;;2.47;;
32876;SDS011;19226;51.600;8.034;2022-10-16T00:32:02;3.92;;;2.28;;
32876;SDS011;19226;51.600;8.034;2022-10-16T00:34:28;8.07;;;2.22;;
32876;SDS011;19226;51.600;8.034;2022-10-16T00:36:56;5.80;;;2.92;;
32876;SDS011;19226;51.600;8.034;2022-10-16T00:39:22;6.07;;;1.92;;
32876;SDS011;19226;51.600;8.034;2022-10-16T00:41:49;7.63;;;2.22;;
32876;SDS011;19226;51.600;8.034;2022-10-16T00:47:51;7.15;;;2.72;;
32876;SDS011;19226;51.600;8.034;2022-10-16T00:52:58;3.95;;;2.20;;
32876;SDS011;19226;51.600;8.034;2022-10-16T00:55:29;4.72;;;2.13;;
32876;SDS011;19226;51.600;8.034;2022-10-16T00:57:56;4.10;;;2.10;;
32876;SDS011;19226;51.600;8.034;2022-10-16T01:00:24;8.38;;;2.10;;
32876;SDS011;19226;51.600;8.034;2022-10-16T01:02:52;4.07;;;1.90;;
32876;SDS011;19226;51.600;8.034;2022-10-16T01:05:20;3.78;;;2.28;;
32876;SDS011;19226;51.600;8.034;2022-10-16T01:07:53;3.05;;;2.20;;
32876;SDS011;19226;51.600;8.034;2022-10-16T01:16:18;5.85;;;1.90;;
32876;SDS011;19226;51.600;8.034;2022-10-16T01:18:57;2.53;;;1.50;;
32876;SDS011;19226;51.600;8.034;2022-10-16T01:21:36;3.58;;;1.77;;
32876;SDS011;19226;51.600;8.034;2022-10-16T01:27:13;9.35;;;1.83;;
32876;SDS011;19226;51.600;8.034;2022-10-16T01:32:31;11.77;;;1.75;;
32876;SDS011;19226;51.600;8.034;2022-10-16T01:35:03;5.85;;;1.65;;
32876;SDS011;19226;51.600;8.034;2022-10-16T01:37:36;5.80;;;2.08;;
32876;SDS011;19226;51.600;8.034;2022-10-16T01:40:27;8.85;;;1.40;;
32876;SDS011;19226;51.600;8.034;2022-10-16T01:42:56;1.75;;;1.38;;
32876;SDS011;19226;51.600;8.034;2022-10-16T01:45:26;1.80;;;1.35;;
32876;SDS011;19226;51.600;8.034;2022-10-16T01:47:59;3.97;;;1.45;;
32876;SDS011;19226;51.600;8.034;2022-10-16T01:50:29;6.20;;;1.70;;
32876;SDS011;19226;51.600;8.034;2022-10-16T01:52:59;7.25;;;1.45;;
32876;SDS011;19226;51.600;8.034;2022-10-16T01:55:30;5.35;;;1.23;;
32876;SDS011;19226;51.600;8.034;2022-10-16T01:57:59;7.00;;;1.60;;
32876;SDS011;19226;51.600;8.034;2022-10-16T02:00:29;6.75;;;1.38;;
32876;SDS011;19226;51.600;8.034;2022-10-16T02:02:56;1.70;;;1.40;;
32876;SDS011;19226;51.600;8.034;2022-10-16T02:08:01;4.35;;;1.40;;
32876;SDS011;19226;51.600;8.034;2022-10-16T02:10:28;4.78;;;1.70;;
32876;SDS011;19226;51.600;8.034;2022-10-16T02:13:12;2.72;;;1.40;;
32876;SDS011;19226;51.600;8.034;2022-10-16T02:15:44;1.75;;;1.25;;
32876;SDS011;19226;51.600;8.034;2022-10-16T02:18:13;1.58;;;1.00;;
32876;SDS011;19226;51.600;8.034;2022-10-16T02:20:46;2.08;;;1.30;;
32876;SDS011;19226;51.600;8.034;2022-10-16T02:23:22;5.05;;;1.52;;
32876;SDS011;19226;51.600;8.034;2022-10-16T02:25:56;2.65;;;1.25;;
32876;SDS011;19226;51.600;8.034;2022-10-16T02:28:31;2.90;;;1.30;;
32876;SDS011;19226;51.600;8.034;2022-10-16T02:31:06;5.30;;;1.67;;
32876;SDS011;19226;51.600;8.034;2022-10-16T02:33:37;1.67;;;1.02;;
32876;SDS011;19226;51.600;8.034;2022-10-16T02:36:06;6.57;;;1.27;;
32876;SDS011;19226;51.600;8.034;2022-10-16T02:38:35;2.50;;;0.98;;
32876;SDS011;19226;51.600;8.034;2022-10-16T02:41:02;1.55;;;1.25;;
32876;SDS011;19226;51.600;8.034;2022-10-16T02:43:31;4.78;;;1.48;;
32876;SDS011;19226;51.600;8.034;2022-10-16T02:45:59;1.90;;;1.23;;
32876;SDS011;19226;51.600;8.034;2022-10-16T02:48:25;6.93;;;1.05;;
32876;SDS011;19226;51.600;8.034;2022-10-16T02:50:51;2.35;;;1.20;;
32876;SDS011;19226;51.600;8.034;2022-10-16T02:53:18;3.60;;;1.13;;
32876;SDS011;19226;51.600;8.034;2022-10-16T02:55:44;1.38;;;0.85;;
32876;SDS011;19226;51.600;8.034;2022-10-16T03:00:59;1.63;;;0.90;;
32876;SDS011;19226;51.600;8.034;2022-10-16T03:03:25;2.90;;;1.08;;
32876;SDS011;19226;51.600;8.034;2022-10-16T03:05:51;2.13;;;1.13;;
32876;SDS011;19226;51.600;8.034;2022-10-16T03:08:17;1.63;;;1.05;;
32876;SDS011;19226;51.600;8.034;2022-10-16T03:10:50;2.03;;;0.95;;
32876;SDS011;19226;51.600;8.034;2022-10-16T03:13:17;2.53;;;0.95;;
32876;SDS011;19226;51.600;8.034;2022-10-16T03:15:46;4.28;;;1.02;;
32876;SDS011;19226;51.600;8.034;2022-10-16T03:18:14;5.65;;;1.10;;
32876;SDS011;19226;51.600;8.034;2022-10-16T03:20:43;5.88;;;1.42;;
32876;SDS011;19226;51.600;8.034;2022-10-16T03:23:09;2.47;;;1.00;;
32876;SDS011;19226;51.600;8.034;2022-10-16T03:25:35;6.35;;;0.95;;
32876;SDS011;19226;51.600;8.034;2022-10-16T03:28:03;4.20;;;1.17;;
32876;SDS011;19226;51.600;8.034;2022-10-16T03:30:30;1.10;;;1.00;;
32876;SDS011;19226;51.600;8.034;2022-10-16T03:32:57;3.92;;;1.08;;
32876;SDS011;19226;51.600;8.034;2022-10-16T03:35:23;1.13;;;1.02;;
32876;SDS011;19226;51.600;8.034;2022-10-16T03:37:56;2.38;;;1.20;;
32876;SDS011;19226;51.600;8.034;2022-10-16T03:40:22;2.90;;;1.05;;
32876;SDS011;19226;51.600;8.034;2022-10-16T03:42:50;4.68;;;0.90;;
32876;SDS011;19226;51.600;8.034;2022-10-16T03:45:16;0.73;;;0.73;;
32876;SDS011;19226;51.600;8.034;2022-10-16T03:47:43;3.63;;;0.70;;
32876;SDS011;19226;51.600;8.034;2022-10-16T03:50:09;1.27;;;0.90;;
32876;SDS011;19226;51.600;8.034;2022-10-16T03:52:35;7.75;;;0.98;;
32876;SDS011;19226;51.600;8.034;2022-10-16T03:55:02;2.45;;;0.95;;
32876;SDS011;19226;51.600;8.034;2022-10-16T03:57:28;3.30;;;1.02;;
32876;SDS011;19226;51.600;8.034;2022-10-16T04:02:41;5.25;;;0.77;;
32876;SDS011;19226;51.600;8.034;2022-10-16T04:05:10;1.27;;;0.77;;
32876;SDS011;19226;51.600;8.034;2022-10-16T04:07:36;2.05;;;1.05;;
32876;SDS011;19226;51.600;8.034;2022-10-16T04:12:49;1.13;;;0.73;;
32876;SDS011;19226;51.600;8.034;2022-10-16T04:15:16;2.70;;;0.73;;
32876;SDS011;19226;51.600;8.034;2022-10-16T04:17:41;3.17;;;0.85;;
32876;SDS011;19226;51.600;8.034;2022-10-16T04:20:10;0.90;;;0.90;;
32876;SDS011;19226;51.600;8.034;2022-10-16T04:22:36;0.80;;;0.80;;
32876;SDS011;19226;51.600;8.034;2022-10-16T04:25:02;0.70;;;0.70;;
32876;SDS011;19226;51.600;8.034;2022-10-16T04:27:29;13.05;;;1.10;;
32876;SDS011;19226;51.600;8.034;2022-10-16T04:29:59;3.78;;;0.73;;
32876;SDS011;19226;51.600;8.034;2022-10-16T04:32:26;5.93;;;0.90;;
32876;SDS011;19226;51.600;8.034;2022-10-16T04:37:38;3.42;;;0.80;;
32876;SDS011;19226;51.600;8.034;2022-10-16T04:40:05;2.72;;;1.10;;
32876;SDS011;19226;51.600;8.034;2022-10-16T04:42:31;6.18;;;1.20;;
32876;SDS011;19226;51.600;8.034;2022-10-16T04:44:57;5.05;;;1.42;;
32876;SDS011;19226;51.600;8.034;2022-10-16T04:47:23;2.30;;;0.88;;
32876;SDS011;19226;51.600;8.034;2022-10-16T04:49:50;3.78;;;1.10;;
32876;SDS011;19226;51.600;8.034;2022-10-16T04:52:16;2.17;;;0.98;;
32876;SDS011;19226;51.600;8.034;2022-10-16T04:54:44;1.00;;;0.82;;
32876;SDS011;19226;51.600;8.034;2022-10-16T04:57:11;1.77;;;0.80;;
32876;SDS011;19226;51.600;8.034;2022-10-16T04:59:37;5.03;;;1.48;;
32876;SDS011;19226;51.600;8.034;2022-10-16T05:02:03;3.05;;;0.90;;
32876;SDS011;19226;51.600;8.034;2022-10-16T05:04:30;3.55;;;0.93;;
32876;SDS011;19226;51.600;8.034;2022-10-16T05:06:57;7.43;;;1.00;;
32876;SDS011;19226;51.600;8.034;2022-10-16T05:09:23;8.88;;;1.00;;
32876;SDS011;19226;51.600;8.034;2022-10-16T05:11:49;4.28;;;1.17;;
32876;SDS011;19226;51.600;8.034;2022-10-16T05:14:15;2.22;;;0.82;;
32876;SDS011;19226;51.600;8.034;2022-10-16T05:16:41;2.83;;;0.85;;
32876;SDS011;19226;51.600;8.034;2022-10-16T05:19:08;1.55;;;0.93;;
32876;SDS011;19226;51.600;8.034;2022-10-16T05:21:36;1.25;;;1.15;;
32876;SDS011;19226;51.600;8.034;2022-10-16T05:24:08;1.67;;;0.70;;
32876;SDS011;19226;51.600;8.034;2022-10-16T05:26:34;4.00;;;0.98;;
32876;SDS011;19226;51.600;8.034;2022-10-16T05:29:00;1.38;;;1.02;;
32876;SDS011;19226;51.600;8.034;2022-10-16T05:31:28;3.08;;;0.63;;
32876;SDS011;19226;51.600;8.034;2022-10-16T05:34:00;1.45;;;0.80;;
32876;SDS011;19226;51.600;8.034;2022-10-16T05:36:29;0.60;;;0.60;;
32876;SDS011;19226;51.600;8.034;2022-10-16T05:38:55;11.60;;;0.90;;
32876;SDS011;19226;51.600;8.034;2022-10-16T05:41:21;0.82;;;0.65;;
32876;SDS011;19226;51.600;8.034;2022-10-16T05:43:52;3.45;;;0.70;;
32876;SDS011;19226;51.600;8.034;2022-10-16T05:46:20;1.67;;;0.65;;
32876;SDS011;19226;51.600;8.034;2022-10-16T05:48:47;4.03;;;0.77;;
32876;SDS011;19226;51.600;8.034;2022-10-16T05:51:14;3.08;;;1.15;;
32876;SDS011;19226;51.600;8.034;2022-10-16T05:53:41;4.35;;;1.00;;
32876;SDS011;19226;51.600;8.034;2022-10-16T05:56:09;0.90;;;0.90;;
32876;SDS011;19226;51.600;8.034;2022-10-16T06:01:06;1.53;;;1.00;;
32876;SDS011;19226;51.600;8.034;2022-10-16T06:03:35;1.30;;;0.90;;
32876;SDS011;19226;51.600;8.034;2022-10-16T06:06:15;2.55;;;0.95;;
32876;SDS011;19226;51.600;8.034;2022-10-16T06:08:43;2.10;;;1.38;;
32876;SDS011;19226;51.600;8.034;2022-10-16T06:11:11;0.82;;;0.82;;
32876;SDS011;19226;51.600;8.034;2022-10-16T06:13:44;1.83;;;0.90;;
32876;SDS011;19226;51.600;8.034;2022-10-16T06:16:13;3.53;;;0.95;;
32876;SDS011;19226;51.600;8.034;2022-10-16T06:18:40;0.90;;;0.80;;
32876;SDS011;19226;51.600;8.034;2022-10-16T06:21:11;1.10;;;0.95;;
32876;SDS011;19226;51.600;8.034;2022-10-16T06:23:41;1.63;;;0.75;;
32876;SDS011;19226;51.600;8.034;2022-10-16T06:26:10;1.23;;;0.73;;
32876;SDS011;19226;51.600;8.034;2022-10-16T06:28:38;2.13;;;0.90;;
32876;SDS011;19226;51.600;8.034;2022-10-16T06:31:07;3.72;;;0.73;;
32876;SDS011;19226;51.600;8.034;2022-10-16T06:33:37;2.72;;;0.88;;
32876;SDS011;19226;51.600;8.034;2022-10-16T06:36:04;0.82;;;0.77;;
32876;SDS011;19226;51.600;8.034;2022-10-16T06:38:31;0.80;;;0.80;;
32876;SDS011;19226;51.600;8.034;2022-10-16T06:40:58;4.22;;;1.20;;
32876;SDS011;19226;51.600;8.034;2022-10-16T06:43:26;3.78;;;0.80;;
32876;SDS011;19226;51.600;8.034;2022-10-16T06:45:56;3.20;;;0.60;;
32876;SDS011;19226;51.600;8.034;2022-10-16T06:48:23;4.20;;;0.98;;
32876;SDS011;19226;51.600;8.034;2022-10-16T06:51:11;1.55;;;0.90;;
32876;SDS011;19226;51.600;8.034;2022-10-16T06:53:43;1.92;;;0.85;;
32876;SDS011;19226;51.600;8.034;2022-10-16T06:56:19;1.77;;;0.85;;
32876;SDS011;19226;51.600;8.034;2022-10-16T06:58:50;1.17;;;1.08;;
32876;SDS011;19226;51.600;8.034;2022-10-16T07:01:20;4.95;;;0.88;;
32876;SDS011;19226;51.600;8.034;2022-10-16T07:03:48;3.78;;;0.82;;
32876;SDS011;19226;51.600;8.034;2022-10-16T07:06:17;0.88;;;0.57;;
32876;SDS011;19226;51.600;8.034;2022-10-16T07:08:46;7.88;;;0.70;;
32876;SDS011;19226;51.600;8.034;2022-10-16T07:11:14;6.20;;;0.82;;
32876;SDS011;19226;51.600;8.034;2022-10-16T07:13:43;1.15;;;0.70;;
32876;SDS011;19226;51.600;8.034;2022-10-16T07:16:21;0.50;;;0.50;;
32876;SDS011;19226;51.600;8.034;2022-10-16T07:18:49;3.80;;;0.77;;
32876;SDS011;19226;51.600;8.034;2022-10-16T07:21:18;5.00;;;0.40;;
32876;SDS011;19226;51.600;8.034;2022-10-16T07:23:53;2.67;;;0.90;;
32876;SDS011;19226;51.600;8.034;2022-10-16T07:26:21;1.02;;;0.70;;
32876;SDS011;19226;51.600;8.034;2022-10-16T07:28:50;1.70;;;0.70;;
32876;SDS011;19226;51.600;8.034;2022-10-16T07:31:18;1.40;;;1.08;;
32876;SDS011;19226;51.600;8.034;2022-10-16T07:33:46;0.57;;;0.55;;
32876;SDS011;19226;51.600;8.034;2022-10-16T07:36:13;9.18;;;0.65;;
32876;SDS011;19226;51.600;8.034;2022-10-16T07:38:41;0.52;;;0.43;;
32876;SDS011;19226;51.600;8.034;2022-10-16T07:41:09;1.75;;;0.60;;
32876;SDS011;19226;51.600;8.034;2022-10-16T07:43:37;2.42;;;0.77;;
32876;SDS011;19226;51.600;8.034;2022-10-16T07:46:05;0.43;;;0.40;;
32876;SDS011;19226;51.600;8.034;2022-10-16T07:48:33;0.88;;;0.70;;
32876;SDS011;19226;51.600;8.034;2022-10-16T07:51:00;1.43;;;0.90;;
32876;SDS011;19226;51.600;8.034;2022-10-16T07:53:31;5.45;;;0.82;;
32876;SDS011;19226;51.600;8.034;2022-10-16T07:55:59;2.50;;;1.00;;
32876;SDS011;19226;51.600;8.034;2022-10-16T07:58:27;2.58;;;0.80;;
32876;SDS011;19226;51.600;8.034;2022-10-16T08:00:54;3.50;;;1.10;;
32876;SDS011;19226;51.600;8.034;2022-10-16T08:03:21;1.23;;;0.65;;
32876;SDS011;19226;51.600;8.034;2022-10-16T08:05:51;1.35;;;0.70;;
32876;SDS011;19226;51.600;8.034;2022-10-16T08:08:33;3.50;;;0.80;;
32876;SDS011;19226;51.600;8.034;2022-10-16T08:11:00;0.93;;;0.43;;
32876;SDS011;19226;51.600;8.034;2022-10-16T08:13:29;1.38;;;0.68;;
32876;SDS011;19226;51.600;8.034;2022-10-16T08:15:57;1.50;;;0.60;;
32876;SDS011;19226;51.600;8.034;2022-10-16T08:18:24;4.78;;;0.55;;
32876;SDS011;19226;51.600;8.034;2022-10-16T08:23:40;2.50;;;0.60;;
32876;SDS011;19226;51.600;8.034;2022-10-16T08:26:07;1.80;;;0.63;;
32876;SDS011;19226;51.600;8.034;2022-10-16T08:28:34;3.55;;;0.70;;
32876;SDS011;19226;51.600;8.034;2022-10-16T08:31:12;2.05;;;0.70;;
32876;SDS011;19226;51.600;8.034;2022-10-16T08:33:40;1.55;;;0.70;;
32876;SDS011;19226;51.600;8.034;2022-10-16T08:36:09;5.07;;;0.75;;
32876;SDS011;19226;51.600;8.034;2022-10-16T08:38:36;1.48;;;0.60;;
32876;SDS011;19226;51.600;8.034;2022-10-16T08:49:33;1.13;;;0.70;;
32876;SDS011;19226;51.600;8.034;2022-10-16T08:51:59;4.50;;;0.82;;
32876;SDS011;19226;51.600;8.034;2022-10-16T09:00:08;1.20;;;1.00;;
32876;SDS011;19226;51.600;8.034;2022-10-16T09:02:38;2.47;;;0.68;;
32876;SDS011;19226;51.600;8.034;2022-10-16T09:18:50;1.40;;;0.63;;
32876;SDS011;19226;51.600;8.034;2022-10-16T09:26:25;5.20;;;0.70;;
32876;SDS011;19226;51.600;8.034;2022-10-16T09:28:52;0.50;;;0.50;;
32876;SDS011;19226;51.600;8.034;2022-10-16T09:31:20;1.58;;;0.73;;
32876;SDS011;19226;51.600;8.034;2022-10-16T09:33:53;3.38;;;0.70;;
32876;SDS011;19226;51.600;8.034;2022-10-16T09:36:25;2.80;;;0.75;;
32876;SDS011;19226;51.600;8.034;2022-10-16T09:39:06;1.30;;;0.73;;
32876;SDS011;19226;51.600;8.034;2022-10-16T09:47:54;1.33;;;0.98;;
32876;SDS011;19226;51.600;8.034;2022-10-16T09:50:27;2.90;;;0.40;;
32876;SDS011;19226;51.600;8.034;2022-10-16T09:53:11;1.55;;;0.43;;
32876;SDS011;19226;51.600;8.034;2022-10-16T09:55:49;4.47;;;0.40;;
32876;SDS011;19226;51.600;8.034;2022-10-16T09:58:17;1.23;;;0.80;;
32876;SDS011;19226;51.600;8.034;2022-10-16T10:00:48;2.85;;;0.75;;
32876;SDS011;19226;51.600;8.034;2022-10-16T10:06:20;1.17;;;0.80;;
32876;SDS011;19226;51.600;8.034;2022-10-16T10:08:55;2.15;;;0.50;;
32876;SDS011;19226;51.600;8.034;2022-10-16T10:16:46;1.25;;;0.50;;
32876;SDS011;19226;51.600;8.034;2022-10-16T10:19:20;1.85;;;0.60;;
32876;SDS011;19226;51.600;8.034;2022-10-16T10:21:48;0.70;;;0.50;;
32876;SDS011;19226;51.600;8.034;2022-10-16T10:24:16;1.95;;;0.50;;
32876;SDS011;19226;51.600;8.034;2022-10-16T10:26:53;0.80;;;0.50;;
32876;SDS011;19226;51.600;8.034;2022-10-16T10:29:54;2.75;;;0.45;;
32876;SDS011;19226;51.600;8.034;2022-10-16T10:32:50;5.32;;;0.40;;
32876;SDS011;19226;51.600;8.034;2022-10-16T10:44:09;3.10;;;0.52;;
32876;SDS011;19226;51.600;8.034;2022-10-16T10:46:51;0.47;;;0.22;;
32876;SDS011;19226;51.600;8.034;2022-10-16T10:52:29;1.35;;;0.40;;
32876;SDS011;19226;51.600;8.034;2022-10-16T11:00:41;0.93;;;0.43;;
32876;SDS011;19226;51.600;8.034;2022-10-16T11:06:24;3.47;;;0.60;;
32876;SDS011;19226;51.600;8.034;2022-10-16T11:15:20;2.55;;;0.60;;
32876;SDS011;19226;51.600;8.034;2022-10-16T11:17:51;7.78;;;0.65;;
32876;SDS011;19226;51.600;8.034;2022-10-16T11:20:19;0.47;;;0.38;;
32876;SDS011;19226;51.600;8.034;2022-10-16T11:22:51;2.35;;;0.50;;
32876;SDS011;19226;51.600;8.034;2022-10-16T11:25:29;2.70;;;1.10;;
32876;SDS011;19226;51.600;8.034;2022-10-16T11:30:50;1.17;;;0.50;;
32876;SDS011;19226;51.600;8.034;2022-10-16T11:36:32;4.68;;;1.40;;
32876;SDS011;19226;51.600;8.034;2022-10-16T11:39:18;0.63;;;0.30;;
32876;SDS011;19226;51.600;8.034;2022-10-16T11:42:10;4.07;;;0.60;;
32876;SDS011;19226;51.600;8.034;2022-10-16T11:47:43;2.80;;;0.40;;
32876;SDS011;19226;51.600;8.034;2022-10-16T11:56:18;0.90;;;0.20;;
32876;SDS011;19226;51.600;8.034;2022-10-16T12:01:47;3.42;;;0.50;;
32876;SDS011;19226;51.600;8.034;2022-10-16T12:04:33;0.93;;;0.20;;
32876;SDS011;19226;51.600;8.034;2022-10-16T12:07:14;1.10;;;0.25;;
32876;SDS011;19226;51.600;8.034;2022-10-16T12:09:46;3.65;;;0.47;;
32876;SDS011;19226;51.600;8.034;2022-10-16T12:12:36;2.85;;;0.25;;
32876;SDS011;19226;51.600;8.034;2022-10-16T12:15:21;1.55;;;0.45;;
32876;SDS011;19226;51.600;8.034;2022-10-16T12:18:07;0.80;;;0.30;;
32876;SDS011;19226;51.600;8.034;2022-10-16T12:20:57;4.30;;;0.40;;
32876;SDS011;19226;51.600;8.034;2022-10-16T12:23:29;1.10;;;0.20;;
32876;SDS011;19226;51.600;8.034;2022-10-16T12:25:56;2.47;;;0.40;;
32876;SDS011;19226;51.600;8.034;2022-10-16T12:28:33;2.93;;;0.60;;
32876;SDS011;19226;51.600;8.034;2022-10-16T12:31:03;1.08;;;0.47;;
32876;SDS011;19226;51.600;8.034;2022-10-16T12:33:36;2.90;;;0.20;;
32876;SDS011;19226;51.600;8.034;2022-10-16T12:36:13;0.93;;;0.30;;
32876;SDS011;19226;51.600;8.034;2022-10-16T12:39:00;4.32;;;0.52;;
32876;SDS011;19226;51.600;8.034;2022-10-16T12:41:31;0.50;;;0.30;;
32876;SDS011;19226;51.600;8.034;2022-10-16T12:44:00;10.13;;;0.60;;
32876;SDS011;19226;51.600;8.034;2022-10-16T12:49:35;3.80;;;0.90;;
32876;SDS011;19226;51.600;8.034;2022-10-16T12:51:54;2.00;;;0.30;;
32876;SDS011;19226;51.600;8.034;2022-10-16T12:54:29;0.93;;;0.40;;
32876;SDS011;19226;51.600;8.034;2022-10-16T13:10:23;1.88;;;0.82;;
32876;SDS011;19226;51.600;8.034;2022-10-16T13:16:19;0.63;;;0.22;;
32876;SDS011;19226;51.600;8.034;2022-10-16T13:21:51;2.63;;;0.30;;
32876;SDS011;19226;51.600;8.034;2022-10-16T13:27:59;2.20;;;0.80;;
32876;SDS011;19226;51.600;8.034;2022-10-16T13:30:35;1.50;;;0.20;;
32876;SDS011;19226;51.600;8.034;2022-10-16T13:33:35;0.55;;;0.10;;
32876;SDS011;19226;51.600;8.034;2022-10-16T13:43:05;3.38;;;0.50;;
32876;SDS011;19226;51.600;8.034;2022-10-16T13:45:36;1.75;;;0.30;;
32876;SDS011;19226;51.600;8.034;2022-10-16T13:48:03;4.20;;;0.85;;
32876;SDS011;19226;51.600;8.034;2022-10-16T13:53:37;5.35;;;0.60;;
32876;SDS011;19226;51.600;8.034;2022-10-16T13:56:04;0.98;;;0.30;;
32876;SDS011;19226;51.600;8.034;2022-10-16T13:58:34;0.98;;;0.32;;
32876;SDS011;19226;51.600;8.034;2022-10-16T14:01:02;1.98;;;0.30;;
32876;SDS011;19226;51.600;8.034;2022-10-16T14:03:41;0.52;;;0.30;;
32876;SDS011;19226;51.600;8.034;2022-10-16T14:08:55;1.30;;;0.40;;
32876;SDS011;19226;51.600;8.034;2022-10-16T14:11:48;2.45;;;0.40;;
32876;SDS011;19226;51.600;8.034;2022-10-16T14:14:19;0.80;;;0.30;;
32876;SDS011;19226;51.600;8.034;2022-10-16T14:16:46;1.30;;;0.30;;
32876;SDS011;19226;51.600;8.034;2022-10-16T14:19:24;1.63;;;0.30;;
32876;SDS011;19226;51.600;8.034;2022-10-16T14:21:53;4.57;;;0.30;;
32876;SDS011;19226;51.600;8.034;2022-10-16T14:24:27;0.38;;;0.30;;
32876;SDS011;19226;51.600;8.034;2022-10-16T14:27:00;0.82;;;0.30;;
32876;SDS011;19226;51.600;8.034;2022-10-16T14:29:29;5.55;;;0.38;;
32876;SDS011;19226;51.600;8.034;2022-10-16T14:31:59;0.82;;;0.32;;
32876;SDS011;19226;51.600;8.034;2022-10-16T14:34:28;1.42;;;0.30;;
32876;SDS011;19226;51.600;8.034;2022-10-16T14:37:05;0.90;;;0.22;;
32876;SDS011;19226;51.600;8.034;2022-10-16T14:39:51;3.08;;;0.43;;
32876;SDS011;19226;51.600;8.034;2022-10-16T14:42:18;3.58;;;0.40;;
32876;SDS011;19226;51.600;8.034;2022-10-16T14:44:48;1.40;;;0.57;;
32876;SDS011;19226;51.600;8.034;2022-10-16T14:47:22;1.52;;;0.35;;
32876;SDS011;19226;51.600;8.034;2022-10-16T14:49:51;1.35;;;0.25;;
32876;SDS011;19226;51.600;8.034;2022-10-16T14:52:20;1.63;;;0.30;;
32876;SDS011;19226;51.600;8.034;2022-10-16T14:54:50;1.48;;;0.30;;
32876;SDS011;19226;51.600;8.034;2022-10-16T14:57:25;1.13;;;0.30;;
32876;SDS011;19226;51.600;8.034;2022-10-16T14:59:53;0.32;;;0.30;;
32876;SDS011;19226;51.600;8.034;2022-10-16T15:02:25;3.20;;;0.98;;
32876;SDS011;19226;51.600;8.034;2022-10-16T15:04:54;3.28;;;1.02;;
32876;SDS011;19226;51.600;8.034;2022-10-16T15:07:22;2.88;;;0.75;;
32876;SDS011;19226;51.600;8.034;2022-10-16T15:09:48;0.95;;;0.80;;
32876;SDS011;19226;51.600;8.034;2022-10-16T15:12:15;3.63;;;1.23;;
32876;SDS011;19226;51.600;8.034;2022-10-16T15:14:42;0.75;;;0.30;;
32876;SDS011;19226;51.600;8.034;2022-10-16T15:17:09;1.90;;;0.32;;
32876;SDS011;19226;51.600;8.034;2022-10-16T15:19:36;3.87;;;0.30;;
32876;SDS011;19226;51.600;8.034;2022-10-16T15:22:04;1.48;;;0.30;;
32876;SDS011;19226;51.600;8.034;2022-10-16T15:24:30;3.15;;;0.43;;
32876;SDS011;19226;51.600;8.034;2022-10-16T15:29:41;1.42;;;0.30;;
32876;SDS011;19226;51.600;8.034;2022-10-16T15:32:09;3.00;;;0.35;;
32876;SDS011;19226;51.600;8.034;2022-10-16T15:34:35;2.78;;;0.20;;
32876;SDS011;19226;51.600;8.034;2022-10-16T15:37:03;1.10;;;0.20;;
32876;SDS011;19226;51.600;8.034;2022-10-16T15:39:29;5.07;;;0.30;;
32876;SDS011;19226;51.600;8.034;2022-10-16T15:41:56;0.52;;;0.20;;
32876;SDS011;19226;51.600;8.034;2022-10-16T15:44:22;0.30;;;0.20;;
32876;SDS011;19226;51.600;8.034;2022-10-16T15:46:54;3.72;;;0.50;;
32876;SDS011;19226;51.600;8.034;2022-10-16T15:51:47;4.88;;;0.60;;
32876;SDS011;19226;51.600;8.034;2022-10-16T15:54:16;0.45;;;0.28;;
32876;SDS011;19226;51.600;8.034;2022-10-16T15:56:47;4.03;;;1.63;;
32876;SDS011;19226;51.600;8.034;2022-10-16T15:59:13;2.05;;;1.42;;
32876;SDS011;19226;51.600;8.034;2022-10-16T16:01:39;5.13;;;1.90;;
32876;SDS011;19226;51.600;8.034;2022-10-16T16:04:07;2.60;;;1.80;;
32876;SDS011;19226;51.600;8.034;2022-10-16T16:06:33;2.13;;;0.50;;
32876;SDS011;19226;51.600;8.034;2022-10-16T16:09:04;1.55;;;0.50;;
32876;SDS011;19226;51.600;8.034;2022-10-16T16:11:30;1.40;;;0.43;;
32876;SDS011;19226;51.600;8.034;2022-10-16T16:13:57;7.30;;;0.70;;
32876;SDS011;19226;51.600;8.034;2022-10-16T16:16:23;1.10;;;0.40;;
32876;SDS011;19226;51.600;8.034;2022-10-16T16:18:52;5.32;;;1.77;;
32876;SDS011;19226;51.600;8.034;2022-10-16T16:21:20;2.45;;;0.80;;
32876;SDS011;19226;51.600;8.034;2022-10-16T16:23:47;1.05;;;0.75;;
32876;SDS011;19226;51.600;8.034;2022-10-16T16:26:14;3.35;;;1.20;;
32876;SDS011;19226;51.600;8.034;2022-10-16T16:28:56;2.20;;;1.00;;
32876;SDS011;19226;51.600;8.034;2022-10-16T16:31:27;4.10;;;1.55;;
32876;SDS011;19226;51.600;8.034;2022-10-16T16:33:55;3.83;;;2.25;;
32876;SDS011;19226;51.600;8.034;2022-10-16T16:36:23;3.55;;;2.20;;
32876;SDS011;19226;51.600;8.034;2022-10-16T16:38:50;2.70;;;1.52;;
32876;SDS011;19226;51.600;8.034;2022-10-16T16:41:17;5.97;;;0.98;;
32876;SDS011;19226;51.600;8.034;2022-10-16T16:46:14;2.88;;;1.20;;
32876;SDS011;19226;51.600;8.034;2022-10-16T16:48:40;5.55;;;1.67;;
32876;SDS011;19226;51.600;8.034;2022-10-16T16:51:08;2.55;;;1.70;;
32876;SDS011;19226;51.600;8.034;2022-10-16T16:53:43;7.55;;;1.75;;
32876;SDS011;19226;51.600;8.034;2022-10-16T16:56:12;3.22;;;2.10;;
32876;SDS011;19226;51.600;8.034;2022-10-16T16:58:38;3.85;;;1.70;;
32876;SDS011;19226;51.600;8.034;2022-10-16T17:01:05;1.73;;;0.98;;
32876;SDS011;19226;51.600;8.034;2022-10-16T17:03:32;3.58;;;1.08;;
32876;SDS011;19226;51.600;8.034;2022-10-16T17:08:47;3.92;;;1.30;;
32876;SDS011;19226;51.600;8.034;2022-10-16T17:11:18;3.72;;;0.90;;
32876;SDS011;19226;51.600;8.034;2022-10-16T17:13:47;1.15;;;0.70;;
32876;SDS011;19226;51.600;8.034;2022-10-16T17:16:15;5.95;;;0.63;;
32876;SDS011;19226;51.600;8.034;2022-10-16T17:18:41;2.38;;;0.75;;
32876;SDS011;19226;51.600;8.034;2022-10-16T17:21:08;4.80;;;0.63;;
32876;SDS011;19226;51.600;8.034;2022-10-16T17:23:35;3.50;;;0.88;;
32876;SDS011;19226;51.600;8.034;2022-10-16T17:26:03;2.67;;;0.75;;
32876;SDS011;19226;51.600;8.034;2022-10-16T17:28:33;1.55;;;1.10;;
32876;SDS011;19226;51.600;8.034;2022-10-16T17:31:06;6.20;;;2.55;;
32876;SDS011;19226;51.600;8.034;2022-10-16T17:33:37;8.00;;;2.80;;
32876;SDS011;19226;51.600;8.034;2022-10-16T17:36:05;7.93;;;3.88;;
32876;SDS011;19226;51.600;8.034;2022-10-16T17:38:31;2.20;;;1.65;;
32876;SDS011;19226;51.600;8.034;2022-10-16T17:40:58;3.50;;;2.10;;
32876;SDS011;19226;51.600;8.034;2022-10-16T17:43:24;4.57;;;1.77;;
32876;SDS011;19226;51.600;8.034;2022-10-16T17:45:52;6.00;;;2.10;;
32876;SDS011;19226;51.600;8.034;2022-10-16T17:48:19;3.33;;;2.63;;
32876;SDS011;19226;51.600;8.034;2022-10-16T17:50:46;3.13;;;2.83;;
32876;SDS011;19226;51.600;8.034;2022-10-16T17:53:12;2.20;;;1.60;;
32876;SDS011;19226;51.600;8.034;2022-10-16T17:55:39;2.08;;;1.55;;
32876;SDS011;19226;51.600;8.034;2022-10-16T18:00:34;2.00;;;1.35;;
32876;SDS011;19226;51.600;8.034;2022-10-16T18:03:07;4.45;;;1.38;;
32876;SDS011;19226;51.600;8.034;2022-10-16T18:05:36;2.40;;;1.35;;